createdAt,value
2018-12-27T00:01:07.381Z,6.50
2018-12-27T00:03:35.810Z,6.50
2018-12-27T00:06:04.267Z,6.50
2018-12-27T00:08:32.701Z,6.50
2018-12-27T00:11:01.146Z,6.50
2018-12-27T00:13:29.609Z,6.40
2018-12-27T00:15:58.058Z,6.40
2018-12-27T00:18:26.507Z,6.40
2018-12-27T00:20:54.951Z,6.40
2018-12-27T00:23:23.386Z,6.40
2018-12-27T00:25:51.852Z,6.40
2018-12-27T00:28:20.369Z,6.40
2018-12-27T00:30:48.986Z,6.40
2018-12-27T00:33:17.587Z,6.40
2018-12-27T00:35:46.197Z,6.40
2018-12-27T00:38:14.791Z,6.40
2018-12-27T00:40:43.400Z,6.40
2018-12-27T00:43:11.990Z,6.40
2018-12-27T00:45:40.602Z,6.40
2018-12-27T00:48:09.225Z,6.40
2018-12-27T00:50:37.813Z,6.40
2018-12-27T00:53:06.415Z,6.40
2018-12-27T00:55:35.013Z,6.30
2018-12-27T00:58:03.618Z,6.30
2018-12-27T01:00:32.222Z,6.30
2018-12-27T01:03:00.827Z,6.30
2018-12-27T01:05:29.416Z,6.30
2018-12-27T01:07:58.029Z,6.30
2018-12-27T01:10:26.629Z,6.30
2018-12-27T01:12:55.243Z,6.30
2018-12-27T01:15:23.871Z,6.30
2018-12-27T01:17:52.475Z,6.30
2018-12-27T01:20:21.083Z,6.30
2018-12-27T01:22:49.695Z,6.30
2018-12-27T01:25:18.277Z,6.30
2018-12-27T01:27:46.887Z,6.30
2018-12-27T01:30:15.484Z,6.30
2018-12-27T01:32:44.090Z,6.30
2018-12-27T01:35:12.680Z,6.30
2018-12-27T01:37:41.299Z,6.30
2018-12-27T01:40:09.880Z,6.30
2018-12-27T01:42:38.486Z,6.30
2018-12-27T01:45:07.078Z,6.30
2018-12-27T01:47:35.679Z,6.30
2018-12-27T01:50:04.261Z,6.30
2018-12-27T01:52:32.904Z,6.30
2018-12-27T01:55:01.499Z,6.40
2018-12-27T01:57:30.102Z,6.30
2018-12-27T01:59:58.693Z,6.30
2018-12-27T02:02:27.305Z,6.30
2018-12-27T02:04:55.904Z,6.30
2018-12-27T02:07:24.519Z,6.30
2018-12-27T02:09:53.106Z,6.40
2018-12-27T02:12:21.711Z,6.40
2018-12-27T02:14:50.321Z,6.40
2018-12-27T02:17:18.919Z,6.40
2018-12-27T02:19:47.536Z,6.40
2018-12-27T02:22:16.132Z,6.40
2018-12-27T02:24:44.740Z,6.30
2018-12-27T02:27:13.333Z,6.40
2018-12-27T02:29:42.010Z,6.40
2018-12-27T02:32:10.611Z,6.40
2018-12-27T02:34:39.221Z,6.40
2018-12-27T02:37:07.815Z,6.30
2018-12-27T02:39:36.425Z,6.40
2018-12-27T02:42:05.030Z,6.40
2018-12-27T02:44:33.737Z,6.40
2018-12-27T02:47:02.330Z,6.40
2018-12-27T02:49:30.940Z,6.30
2018-12-27T02:51:59.556Z,6.40
2018-12-27T02:54:28.229Z,6.40
2018-12-27T02:56:56.821Z,6.40
2018-12-27T02:59:25.437Z,6.40
2018-12-27T03:01:54.035Z,6.30
2018-12-27T03:04:22.655Z,6.30
2018-12-27T03:06:51.262Z,6.30
2018-12-27T03:09:19.876Z,6.30
2018-12-27T03:11:48.472Z,6.30
2018-12-27T03:14:17.077Z,6.30
2018-12-27T03:16:45.677Z,6.30
2018-12-27T03:19:14.332Z,6.30
2018-12-27T03:21:42.917Z,6.30
2018-12-27T03:24:11.515Z,6.20
2018-12-27T03:26:40.125Z,6.20
2018-12-27T03:29:08.709Z,6.20
2018-12-27T03:31:37.329Z,6.30
2018-12-27T03:34:05.941Z,6.20
2018-12-27T03:36:34.563Z,6.20
2018-12-27T03:39:04.022Z,6.20
2018-12-27T03:41:32.639Z,6.30
2018-12-27T03:44:01.297Z,6.20
2018-12-27T03:46:29.907Z,6.20
2018-12-27T03:48:58.508Z,6.20
2018-12-27T03:51:27.114Z,6.20
2018-12-27T03:53:55.719Z,6.20
2018-12-27T03:56:24.333Z,6.20
2018-12-27T03:58:52.911Z,6.20
2018-12-27T04:01:21.518Z,6.20
2018-12-27T04:03:50.107Z,6.20
2018-12-27T04:06:18.737Z,6.10
2018-12-27T04:08:47.385Z,6.20
2018-12-27T04:11:16.017Z,6.20
2018-12-27T04:13:44.616Z,6.20
2018-12-27T04:16:13.065Z,6.10
2018-12-27T04:18:41.519Z,6.20
2018-12-27T04:21:10.035Z,6.10
2018-12-27T04:23:38.533Z,6.10
2018-12-27T04:26:07.067Z,6.10
2018-12-27T04:28:35.504Z,6.10
2018-12-27T04:31:03.952Z,6.10
2018-12-27T04:33:32.729Z,6.10
2018-12-27T04:36:01.342Z,6.10
2018-12-27T04:38:29.808Z,6.10
2018-12-27T04:40:58.246Z,6.10
2018-12-27T04:43:26.783Z,6.10
2018-12-27T04:45:55.222Z,6.10
2018-12-27T04:48:23.675Z,6.10
2018-12-27T04:50:52.151Z,6.10
2018-12-27T04:53:20.649Z,6.00
2018-12-27T04:55:49.102Z,6.00
2018-12-27T04:58:17.575Z,6.00
2018-12-27T05:00:46.015Z,6.20
2018-12-27T05:03:14.483Z,6.10
2018-12-27T05:05:42.918Z,6.00
2018-12-27T05:08:11.367Z,6.00
2018-12-27T05:10:39.812Z,6.00
2018-12-27T05:13:08.267Z,6.00
2018-12-27T05:15:36.702Z,6.00
2018-12-27T05:18:05.160Z,6.00
2018-12-27T05:20:33.710Z,6.00
2018-12-27T05:23:02.192Z,6.00
2018-12-27T05:25:30.623Z,6.00
2018-12-27T05:27:59.070Z,6.00
2018-12-27T05:30:27.510Z,6.00
2018-12-27T05:32:55.979Z,6.00
2018-12-27T05:35:24.414Z,6.00
2018-12-27T05:37:52.850Z,5.90
2018-12-27T05:40:21.327Z,6.00
2018-12-27T05:42:49.762Z,5.90
2018-12-27T05:45:18.220Z,5.90
2018-12-27T05:47:46.673Z,5.90
2018-12-27T05:50:15.151Z,5.90
2018-12-27T05:52:43.570Z,5.90
2018-12-27T05:55:12.022Z,5.90
2018-12-27T05:57:40.459Z,5.90
2018-12-27T06:00:08.927Z,5.90
2018-12-27T06:02:37.361Z,5.90
2018-12-27T06:05:05.826Z,5.80
2018-12-27T06:07:34.307Z,5.80
2018-12-27T06:10:02.789Z,5.80
2018-12-27T06:12:31.311Z,5.70
2018-12-27T06:14:59.754Z,5.80
2018-12-27T06:17:28.197Z,5.70
2018-12-27T06:19:56.667Z,5.70
2018-12-27T06:22:25.102Z,5.70
2018-12-27T06:24:53.563Z,5.70
2018-12-27T06:27:21.994Z,5.70
2018-12-27T06:29:50.445Z,5.70
2018-12-27T06:32:18.922Z,5.70
2018-12-27T06:34:47.382Z,5.60
2018-12-27T06:37:15.822Z,5.60
2018-12-27T06:39:44.284Z,5.50
2018-12-27T06:42:12.711Z,5.50
2018-12-27T06:44:41.157Z,5.50
2018-12-27T06:47:09.589Z,5.50
2018-12-27T06:49:38.066Z,5.50
2018-12-27T06:52:06.525Z,5.40
2018-12-27T06:54:34.989Z,5.50
2018-12-27T06:57:03.506Z,5.50
2018-12-27T06:59:31.952Z,5.50
2018-12-27T07:02:00.477Z,5.40
2018-12-27T07:04:28.929Z,5.40
2018-12-27T07:06:57.396Z,5.40
2018-12-27T07:09:25.844Z,5.40
2018-12-27T07:11:54.296Z,5.40
2018-12-27T07:14:22.722Z,5.30
2018-12-27T07:16:51.175Z,5.20
2018-12-27T07:19:19.623Z,5.20
2018-12-27T07:21:48.074Z,5.10
2018-12-27T07:24:16.522Z,5.00
2018-12-27T07:26:44.977Z,5.00
2018-12-27T07:29:13.433Z,5.00
2018-12-27T07:31:41.887Z,5.00
2018-12-27T07:34:10.318Z,5.00
2018-12-27T07:36:38.840Z,4.90
2018-12-27T07:39:07.290Z,4.90
2018-12-27T07:41:35.751Z,4.90
2018-12-27T07:44:04.194Z,4.90
2018-12-27T07:46:32.652Z,4.80
2018-12-27T07:49:01.125Z,4.80
2018-12-27T07:51:29.624Z,4.80
2018-12-27T07:53:58.065Z,4.90
2018-12-27T07:56:26.510Z,4.80
2018-12-27T07:58:55.014Z,4.80
2018-12-27T08:01:23.509Z,4.90
2018-12-27T08:03:52.021Z,4.80
2018-12-27T08:06:20.462Z,4.80
2018-12-27T08:08:48.935Z,4.90
2018-12-27T08:11:17.371Z,4.90
2018-12-27T08:13:45.823Z,4.90
2018-12-27T08:16:14.268Z,4.90
2018-12-27T08:18:42.728Z,4.90
2018-12-27T08:21:11.254Z,4.90
2018-12-27T08:23:39.708Z,4.90
2018-12-27T08:26:08.151Z,4.90
2018-12-27T08:28:36.610Z,4.90
2018-12-27T08:31:05.050Z,4.80
2018-12-27T08:33:33.606Z,4.80
2018-12-27T08:36:02.106Z,4.80
2018-12-27T08:38:30.869Z,4.90
2018-12-27T08:40:59.298Z,4.90
2018-12-27T08:43:27.749Z,4.90
2018-12-27T08:45:56.208Z,4.90
2018-12-27T08:48:24.700Z,4.90
2018-12-27T08:50:53.203Z,4.90
2018-12-27T08:53:21.785Z,4.90
2018-12-27T08:55:50.221Z,4.80
2018-12-27T08:58:18.692Z,4.90
2018-12-27T09:00:47.142Z,4.90
2018-12-27T09:03:15.661Z,4.90
2018-12-27T09:05:44.102Z,4.90
2018-12-27T09:08:12.562Z,4.90
2018-12-27T09:10:40.999Z,4.90
2018-12-27T09:13:09.457Z,4.90
2018-12-27T09:15:37.892Z,4.90
2018-12-27T09:18:06.375Z,4.90
2018-12-27T09:20:34.818Z,4.90
2018-12-27T09:23:03.258Z,5.00
2018-12-27T09:25:31.720Z,4.90
2018-12-27T09:28:00.164Z,4.90
2018-12-27T09:30:28.613Z,4.90
2018-12-27T09:32:57.074Z,4.90
2018-12-27T09:35:26.541Z,4.90
2018-12-27T09:37:55.133Z,5.00
2018-12-27T09:40:23.590Z,5.00
2018-12-27T09:42:52.013Z,5.00
2018-12-27T09:45:20.471Z,5.00
2018-12-27T09:47:48.908Z,5.00
2018-12-27T09:50:17.363Z,4.90
2018-12-27T09:52:45.814Z,5.00
2018-12-27T09:55:14.265Z,4.90
2018-12-27T09:57:42.698Z,5.00
2018-12-27T10:00:11.327Z,5.00
2018-12-27T10:02:39.775Z,5.00
2018-12-27T10:05:08.230Z,5.00
2018-12-27T10:07:36.735Z,5.00
2018-12-27T10:10:06.142Z,5.00
2018-12-27T10:12:34.593Z,5.00
2018-12-27T10:15:03.119Z,5.00
2018-12-27T10:17:31.558Z,5.10
2018-12-27T10:20:00.028Z,5.00
2018-12-27T10:22:28.475Z,5.00
2018-12-27T10:24:56.938Z,5.10
2018-12-27T10:27:25.399Z,5.10
2018-12-27T10:29:53.840Z,4.80
2018-12-27T10:32:22.294Z,5.10
2018-12-27T10:34:50.742Z,5.10
2018-12-27T10:37:19.195Z,5.10
2018-12-27T10:39:47.668Z,5.10
2018-12-27T10:42:16.122Z,5.20
2018-12-27T10:44:44.567Z,5.20
2018-12-27T10:47:13.014Z,5.20
2018-12-27T10:49:41.461Z,5.30
2018-12-27T10:52:09.930Z,5.30
2018-12-27T10:54:38.395Z,5.40
2018-12-27T10:57:06.859Z,5.30
2018-12-27T10:59:35.357Z,5.40
2018-12-27T11:02:03.913Z,5.30
2018-12-27T11:04:32.342Z,5.30
2018-12-27T11:07:00.821Z,5.40
2018-12-27T11:09:29.269Z,5.40
2018-12-27T11:11:57.811Z,5.40
2018-12-27T11:14:26.253Z,5.50
2018-12-27T11:16:54.705Z,5.50
2018-12-27T11:19:23.175Z,5.50
2018-12-27T11:21:51.632Z,5.50
2018-12-27T11:24:20.078Z,5.60
2018-12-27T11:26:48.553Z,5.60
2018-12-27T11:29:17.000Z,5.60
2018-12-27T11:31:45.624Z,5.60
2018-12-27T11:34:14.066Z,5.60
2018-12-27T11:36:42.507Z,5.60
2018-12-27T11:39:10.962Z,5.60
2018-12-27T11:41:39.402Z,5.70
2018-12-27T11:44:07.922Z,5.70
2018-12-27T11:46:36.370Z,5.60
2018-12-27T11:49:04.825Z,5.70
2018-12-27T11:51:33.286Z,5.70
2018-12-27T11:54:01.751Z,5.70
2018-12-27T11:56:30.188Z,5.70
2018-12-27T11:58:58.637Z,5.70
2018-12-27T12:01:27.125Z,5.60
2018-12-27T12:03:55.586Z,5.60
2018-12-27T12:06:24.025Z,5.60
2018-12-27T12:08:52.553Z,5.60
2018-12-27T12:11:20.985Z,5.60
2018-12-27T12:13:49.438Z,5.60
2018-12-27T12:16:17.885Z,5.60
2018-12-27T12:18:46.348Z,5.60
2018-12-27T12:21:14.824Z,5.60
2018-12-27T12:23:43.289Z,5.50
2018-12-27T12:26:11.730Z,5.60
2018-12-27T12:28:40.185Z,5.60
2018-12-27T12:31:08.630Z,5.50
2018-12-27T12:33:37.094Z,5.50
2018-12-27T12:36:10.546Z,5.50
2018-12-27T12:38:36.189Z,5.50
2018-12-27T12:41:04.618Z,5.50
2018-12-27T12:43:33.052Z,5.50
2018-12-27T12:46:01.512Z,5.50
2018-12-27T12:48:29.953Z,5.50
2018-12-27T12:50:58.410Z,5.50
2018-12-27T12:53:26.875Z,5.50
2018-12-27T12:55:55.327Z,5.60
2018-12-27T12:58:23.766Z,5.60
2018-12-27T13:00:52.234Z,5.60
2018-12-27T13:03:20.670Z,5.60
2018-12-27T13:05:49.127Z,5.70
2018-12-27T13:08:17.570Z,5.60
2018-12-27T13:10:46.036Z,5.60
2018-12-27T13:13:14.471Z,5.60
2018-12-27T13:15:42.923Z,5.60
2018-12-27T13:18:11.382Z,5.70
2018-12-27T13:20:39.904Z,5.60
2018-12-27T13:23:08.339Z,5.60
2018-12-27T13:25:36.781Z,5.60
2018-12-27T13:28:05.240Z,5.60
2018-12-27T13:30:33.685Z,5.60
2018-12-27T13:33:02.125Z,5.60
2018-12-27T13:35:30.578Z,5.60
2018-12-27T13:37:59.064Z,5.60
2018-12-27T13:40:27.507Z,5.60
2018-12-27T13:42:55.956Z,5.60
2018-12-27T13:45:24.427Z,5.60
2018-12-27T13:47:53.621Z,5.60
2018-12-27T13:50:22.103Z,5.60
2018-12-27T13:52:50.560Z,5.60
2018-12-27T13:55:19.008Z,5.70
2018-12-27T13:57:48.265Z,5.70
2018-12-27T14:00:16.715Z,5.70
2018-12-27T14:02:45.168Z,5.70
2018-12-27T14:05:13.615Z,5.70
2018-12-27T14:07:42.082Z,5.70
2018-12-27T14:10:10.514Z,5.70
2018-12-27T14:12:38.964Z,5.70
2018-12-27T14:15:07.877Z,5.70
2018-12-27T14:17:36.323Z,5.70
2018-12-27T14:20:07.403Z,5.70
2018-12-27T14:22:35.855Z,5.80
2018-12-27T14:25:04.463Z,5.70
2018-12-27T14:27:32.913Z,5.80
2018-12-27T14:30:01.363Z,5.80
2018-12-27T14:32:29.806Z,5.70
2018-12-27T14:34:58.253Z,5.70
2018-12-27T14:37:26.721Z,5.70
2018-12-27T14:39:55.153Z,5.70
2018-12-27T14:42:23.698Z,5.70
2018-12-27T14:44:52.139Z,5.70
2018-12-27T14:47:20.588Z,5.70
2018-12-27T14:49:49.029Z,5.70
2018-12-27T14:52:17.667Z,5.60
2018-12-27T14:54:46.110Z,5.70
2018-12-27T14:57:14.629Z,5.70
2018-12-27T14:59:43.073Z,5.70
2018-12-27T15:02:11.502Z,5.60
2018-12-27T15:04:39.968Z,5.60
2018-12-27T15:07:08.398Z,5.60
2018-12-27T15:09:36.864Z,5.60
2018-12-27T15:12:05.289Z,5.60
2018-12-27T15:14:33.762Z,5.60
2018-12-27T15:17:02.209Z,5.60
2018-12-27T15:19:30.665Z,5.70
2018-12-27T15:21:59.093Z,5.70
2018-12-27T15:24:27.554Z,5.70
2018-12-27T15:26:55.986Z,5.70
2018-12-27T15:29:24.493Z,5.70
2018-12-27T15:31:52.953Z,5.70
2018-12-27T15:34:21.691Z,5.60
2018-12-27T15:36:54.345Z,5.60
2018-12-27T15:39:20.331Z,5.70
2018-12-27T15:41:48.783Z,5.70
2018-12-27T15:44:17.242Z,5.60
2018-12-27T15:46:45.674Z,5.60
2018-12-27T15:49:14.131Z,5.60
2018-12-27T15:51:42.573Z,5.60
2018-12-27T15:54:11.027Z,5.60
2018-12-27T15:56:39.470Z,5.60
2018-12-27T15:59:07.937Z,5.70
2018-12-27T16:01:36.387Z,5.70
2018-12-27T16:04:04.836Z,5.60
2018-12-27T16:06:33.273Z,5.70
2018-12-27T16:09:01.731Z,5.70
2018-12-27T16:11:30.169Z,5.70
2018-12-27T16:13:58.644Z,5.70
2018-12-27T16:16:27.074Z,5.70
2018-12-27T16:18:55.523Z,5.70
2018-12-27T16:21:23.966Z,5.70
2018-12-27T16:23:52.405Z,5.70
2018-12-27T16:26:20.861Z,5.70
2018-12-27T16:28:49.293Z,5.70
2018-12-27T16:31:17.759Z,5.70
2018-12-27T16:33:46.194Z,5.70
2018-12-27T16:36:14.662Z,5.70
2018-12-27T16:38:43.098Z,5.70
2018-12-27T16:41:11.538Z,5.70
2018-12-27T16:43:39.977Z,5.70
2018-12-27T16:46:08.441Z,5.70
2018-12-27T16:48:37.251Z,5.80
2018-12-27T16:51:05.723Z,5.80
2018-12-27T16:53:34.190Z,5.90
2018-12-27T16:56:02.692Z,5.80
2018-12-27T16:58:31.140Z,5.80
2018-12-27T17:00:59.596Z,5.80
2018-12-27T17:03:28.053Z,5.80
2018-12-27T17:05:56.510Z,5.80
2018-12-27T17:08:24.950Z,5.80
2018-12-27T17:10:53.418Z,5.80
2018-12-27T17:13:21.847Z,5.80
2018-12-27T17:15:50.299Z,5.80
2018-12-27T17:18:18.728Z,5.90
2018-12-27T17:20:47.190Z,5.90
2018-12-27T17:23:15.685Z,5.90
2018-12-27T17:25:44.133Z,5.90
2018-12-27T17:28:12.581Z,5.90
2018-12-27T17:30:41.026Z,5.90
2018-12-27T17:33:09.490Z,5.90
2018-12-27T17:35:37.923Z,5.90
2018-12-27T17:38:06.391Z,5.90
2018-12-27T17:40:34.825Z,5.90
2018-12-27T17:43:03.286Z,5.90
2018-12-27T17:45:31.752Z,5.90
2018-12-27T17:48:00.202Z,5.90
2018-12-27T17:50:28.639Z,5.90
2018-12-27T17:52:57.099Z,5.90
2018-12-27T17:55:25.545Z,5.90
2018-12-27T17:57:54.019Z,5.90
2018-12-27T18:00:22.479Z,5.90
2018-12-27T18:02:50.942Z,6.00
2018-12-27T18:05:19.400Z,5.90
2018-12-27T18:07:47.865Z,5.90
2018-12-27T18:10:16.370Z,6.00
2018-12-27T18:12:44.828Z,6.00
2018-12-27T18:15:13.267Z,6.00
2018-12-27T18:17:43.091Z,6.00
2018-12-27T18:20:11.641Z,5.90
2018-12-27T18:22:40.110Z,5.90
2018-12-27T18:25:08.559Z,5.90
2018-12-27T18:27:37.019Z,5.90
2018-12-27T18:30:07.185Z,5.90
2018-12-27T18:32:35.694Z,5.90
2018-12-27T18:35:05.482Z,5.80
2018-12-27T18:37:37.730Z,5.80
2018-12-27T18:40:04.978Z,5.90
2018-12-27T18:42:33.433Z,5.80
2018-12-27T18:45:01.874Z,5.80
2018-12-27T18:47:30.318Z,5.80
2018-12-27T18:49:58.807Z,5.80
2018-12-27T18:52:27.335Z,5.80
2018-12-27T18:54:55.794Z,5.80
2018-12-27T18:57:24.240Z,5.80
2018-12-27T18:59:52.692Z,5.80
2018-12-27T19:02:21.144Z,5.80
2018-12-27T19:04:49.596Z,5.70
2018-12-27T19:07:18.051Z,5.70
2018-12-27T19:09:46.506Z,5.70
2018-12-27T19:12:50.846Z,5.70
2018-12-27T19:15:19.310Z,5.70
2018-12-27T19:17:49.581Z,5.70
2018-12-27T19:20:18.050Z,5.70
2018-12-27T19:22:49.556Z,5.70
2018-12-27T19:25:18.018Z,5.70
2018-12-27T19:27:46.470Z,5.70
2018-12-27T19:30:14.935Z,5.60
2018-12-27T19:32:43.381Z,5.70
2018-12-27T19:35:11.838Z,5.70
2018-12-27T19:37:40.276Z,5.70
2018-12-27T19:40:08.735Z,5.70
2018-12-27T19:42:37.176Z,5.70
2018-12-27T19:45:05.629Z,5.70
2018-12-27T19:47:34.062Z,5.70
2018-12-27T19:50:02.530Z,5.70
2018-12-27T19:52:31.012Z,5.70
2018-12-27T19:54:59.517Z,5.70
2018-12-27T19:57:27.950Z,5.70
2018-12-27T19:59:56.388Z,5.70
2018-12-27T20:02:24.845Z,5.70
2018-12-27T20:04:53.300Z,5.70
2018-12-27T20:07:21.757Z,5.80
2018-12-27T20:09:50.215Z,5.80
2018-12-27T20:12:18.691Z,5.80
2018-12-27T20:14:47.122Z,5.70
2018-12-27T20:17:15.578Z,5.70
2018-12-27T20:19:44.014Z,5.70
2018-12-27T20:22:12.533Z,5.70
2018-12-27T20:24:41.107Z,5.70
2018-12-27T20:27:09.563Z,5.70
2018-12-27T20:29:38.009Z,5.70
2018-12-27T20:32:06.489Z,5.80
2018-12-27T20:34:34.927Z,5.70
2018-12-27T20:37:03.378Z,5.80
2018-12-27T20:39:31.830Z,5.80
2018-12-27T20:42:01.507Z,5.80
2018-12-27T20:44:30.015Z,5.70
2018-12-27T20:46:58.536Z,5.70
2018-12-27T20:49:26.974Z,5.70
2018-12-27T20:51:55.434Z,5.70
2018-12-27T20:54:23.867Z,5.70
2018-12-27T20:56:52.305Z,5.80
2018-12-27T20:59:20.770Z,5.90
2018-12-27T21:01:49.207Z,5.80
2018-12-27T21:04:17.654Z,5.70
2018-12-27T21:06:46.097Z,5.80
2018-12-27T21:09:14.558Z,5.80
2018-12-27T21:11:42.977Z,5.70
2018-12-27T21:14:11.434Z,5.70
2018-12-27T21:16:39.882Z,5.70
2018-12-27T21:19:08.338Z,5.70
2018-12-27T21:21:36.786Z,5.80
2018-12-27T21:24:05.243Z,5.80
2018-12-27T21:26:33.681Z,5.80
2018-12-27T21:29:02.144Z,5.90
2018-12-27T21:31:30.579Z,5.90
2018-12-27T21:33:59.035Z,5.90
2018-12-27T21:36:27.480Z,5.90
2018-12-27T21:38:55.942Z,5.80
2018-12-27T21:41:24.392Z,5.80
2018-12-27T21:43:52.842Z,5.80
2018-12-27T21:46:21.286Z,5.80
2018-12-27T21:48:49.756Z,5.80
2018-12-27T21:51:18.204Z,5.80
2018-12-27T21:53:46.684Z,5.80
2018-12-27T21:56:15.133Z,5.70
2018-12-27T21:58:43.574Z,5.80
2018-12-27T22:01:12.064Z,5.70
2018-12-27T22:03:40.562Z,5.70
2018-12-27T22:06:09.020Z,5.70
2018-12-27T22:08:37.454Z,5.70
2018-12-27T22:11:05.914Z,5.70
2018-12-27T22:13:34.367Z,5.70
2018-12-27T22:16:02.822Z,5.70
2018-12-27T22:18:31.264Z,5.70
2018-12-27T22:20:59.727Z,5.70
2018-12-27T22:23:28.169Z,5.70
2018-12-27T22:25:56.625Z,5.70
2018-12-27T22:28:25.064Z,5.70
2018-12-27T22:30:53.578Z,5.70
2018-12-27T22:33:22.005Z,5.70
2018-12-27T22:35:50.506Z,5.70
2018-12-27T22:38:18.999Z,5.70
2018-12-27T22:40:47.497Z,5.70
2018-12-27T22:43:15.946Z,5.70
2018-12-27T22:45:44.402Z,5.70
2018-12-27T22:48:12.841Z,5.70
2018-12-27T22:50:41.289Z,5.70
2018-12-27T22:53:09.801Z,5.70
2018-12-27T22:55:38.252Z,5.70
2018-12-27T22:58:06.691Z,5.60
2018-12-27T23:00:36.930Z,5.60
2018-12-27T23:03:05.378Z,5.60
2018-12-27T23:05:33.830Z,5.60
2018-12-27T23:08:02.291Z,5.60
2018-12-27T23:10:30.732Z,5.50
2018-12-27T23:12:59.179Z,5.50
2018-12-27T23:15:27.703Z,5.50
2018-12-27T23:17:56.168Z,5.50
2018-12-27T23:20:24.604Z,5.50
2018-12-27T23:22:53.061Z,5.50
2018-12-27T23:25:21.508Z,5.50
2018-12-27T23:27:49.969Z,5.50
2018-12-27T23:30:18.405Z,5.50
2018-12-27T23:32:46.873Z,5.50
2018-12-27T23:35:15.374Z,5.50
2018-12-27T23:37:43.837Z,5.50
2018-12-27T23:40:12.276Z,5.50
2018-12-27T23:42:40.723Z,5.50
2018-12-27T23:45:09.163Z,5.50
2018-12-27T23:47:37.619Z,5.50
2018-12-27T23:50:06.209Z,5.50
2018-12-27T23:52:34.663Z,5.60
2018-12-27T23:55:03.101Z,5.60
2018-12-27T23:57:31.567Z,5.60
